Delta Virtual Airport Information Service

Bogota El Dorado International Airport

ICAO: SKBO Country: Colombia
Latitude: 4.70306 Longitude: -74.1383
Latest Arrival : UAL1068 (KEWR-SKBO) Latest Departure : GTI72 (SKBO-KMIA)


WX CaptureLIVE
Data provided by noaa.gov | Fetched at 07:35:39

METAR : SKBO 301300Z 05007KT 9999 FEW020 15/10 A3037 NOSIG

TAF : SKBO 301030Z 3012/0112 VRB02KT 9999 FEW020 SCT100 BECMG 3014/3016 32011KT PROB40 TEMPO 3019/3022 TSRA SCT015CB BKN080 BECMG 0104/0106 VRB02KT TX21/3018Z TN09/0110Z


Runway Data for SKBO
Data provided by openaviationdata.com

Runway ID Mag Var Hdg Length Elevation Surface ILS Freq ILS Id ILS Slope
13L -5 132° 12449 ft 8358 ft Asphalt 109.9 IEDR 3
13R -5 132° 12503 ft 8358 ft Asphalt 110.7 IADO 3
31L -5 312° 12503 ft 8358 ft Asphalt -- -- --
31R -5 312° 12449 ft 8358 ft Asphalt -- -- --

Bogota El Dorado International Airport, Colombia
Use only for reference purposes



Not for navigational purposes.